Time;durP1;ratioP1;P1;durP2;ratioP2;P2;SDS_P1;SDS_P2;PMS_P1;PMS_P2;Temp;Humidity;BMP_temperature;BMP_pressure;BME280_temperature;BME280_humidity;BME280_pressure;Samples;Min_cycle;Max_cycle;Signal;HPM_P1;HPM_P2
2021/06/29 00:01:10;;;;;;;0.37;0.30;;;20.20;99.90;;;;;;5002181;28;20179;-80
2021/06/29 00:03:35;;;;;;;0.90;0.30;;;20.30;99.90;;;;;;5035400;28;20199;-80
2021/06/29 00:06:01;;;;;;;0.43;0.37;;;20.30;99.90;;;;;;5002300;28;20555;-80
2021/06/29 00:08:26;;;;;;;0.33;0.20;;;20.30;99.90;;;;;;5002251;28;20230;-80
2021/06/29 00:10:52;;;;;;;0.60;0.60;;;20.20;99.90;;;;;;5002231;28;20167;-80
2021/06/29 00:13:20;;;;;;;0.40;0.30;;;20.20;99.90;;;;;;5002276;28;20252;-80
2021/06/29 00:15:45;;;;;;;0.43;0.30;;;20.20;99.90;;;;;;5003415;28;20203;-80
2021/06/29 00:18:11;;;;;;;0.47;0.20;;;20.20;99.90;;;;;;5002497;28;20557;-80
2021/06/29 00:20:36;;;;;;;0.20;0.20;;;20.20;99.90;;;;;;5002461;28;20182;-80
2021/06/29 00:23:02;;;;;;;0.30;0.30;;;20.20;99.90;;;;;;5002077;28;20199;-80
2021/06/29 00:25:28;;;;;;;0.47;0.30;;;20.20;99.90;;;;;;5002946;28;20187;-80
2021/06/29 00:27:54;;;;;;;0.13;0.13;;;20.20;99.90;;;;;;5003167;28;20241;-80
2021/06/29 00:30:22;;;;;;;0.30;0.30;;;20.20;99.90;;;;;;5019276;28;20179;-80
2021/06/29 00:32:47;;;;;;;0.40;0.30;;;20.20;99.90;;;;;;5018511;28;20628;-80
2021/06/29 00:35:13;;;;;;;0.10;0.10;;;20.20;99.90;;;;;;5001651;28;20175;-80
2021/06/29 00:37:39;;;;;;;0.40;0.40;;;20.10;99.90;;;;;;5018310;28;20599;-80
2021/06/29 00:40:06;;;;;;;0.23;0.20;;;20.10;99.90;;;;;;5018651;28;20175;-80
2021/06/29 00:42:32;;;;;;;0.20;0.20;;;20.10;99.90;;;;;;5019009;28;20202;-80
2021/06/29 00:44:57;;;;;;;0.20;0.20;;;20.10;99.90;;;;;;5002470;28;20186;-80
2021/06/29 00:47:23;;;;;;;0.70;0.57;;;20.10;99.90;;;;;;5018602;28;20179;-80
2021/06/29 00:49:48;;;;;;;0.60;0.30;;;20.00;99.90;;;;;;5018646;28;20661;-80
2021/06/29 00:52:14;;;;;;;0.60;0.20;;;20.00;99.90;;;;;;5018176;28;20253;-80
2021/06/29 00:54:40;;;;;;;0.20;0.20;;;20.00;99.90;;;;;;5018874;28;20752;-80
2021/06/29 00:57:10;;;;;;;1.00;0.47;;;20.00;99.90;;;;;;5001826;28;20186;-80
2021/06/29 00:59:37;;;;;;;0.20;0.20;;;20.00;99.90;;;;;;5002246;28;20551;-80
2021/06/29 01:02:02;;;;;;;0.50;0.30;;;20.00;99.90;;;;;;5002460;28;20175;-80
2021/06/29 01:04:28;;;;;;;0.23;0.17;;;20.00;99.90;;;;;;5002305;28;20294;-80
2021/06/29 01:06:54;;;;;;;0.50;0.30;;;20.00;99.90;;;;;;5001146;28;20178;-80
2021/06/29 01:09:20;;;;;;;0.33;0.23;;;20.00;99.90;;;;;;5002317;28;20298;-80
2021/06/29 01:11:46;;;;;;;0.33;0.30;;;20.00;99.90;;;;;;5019261;28;20590;-80
2021/06/29 01:14:12;;;;;;;0.77;0.27;;;20.00;99.90;;;;;;5018323;28;20217;-80
2021/06/29 01:16:39;;;;;;;0.50;0.50;;;20.00;99.90;;;;;;5018496;28;20288;-80
2021/06/29 01:19:04;;;;;;;0.43;0.30;;;20.00;99.90;;;;;;5001468;28;20179;-80
2021/06/29 01:21:37;;;;;;;0.60;0.30;;;20.00;99.90;;;;;;5035436;28;20321;-80
2021/06/29 01:24:06;;;;;;;0.30;0.30;;;20.00;99.90;;;;;;5018858;28;20199;-80
2021/06/29 01:26:34;;;;;;;0.30;0.30;;;20.00;99.90;;;;;;5002482;28;20186;-80
2021/06/29 01:29:08;;;;;;;0.20;0.20;;;20.00;99.90;;;;;;5001569;28;20203;-80
2021/06/29 01:31:35;;;;;;;0.40;0.20;;;20.00;99.90;;;;;;5018448;28;20527;-80
2021/06/29 01:34:00;;;;;;;0.57;0.50;;;20.00;99.90;;;;;;5001419;28;20650;-80
2021/06/29 01:36:38;;;;;;;0.30;0.30;;;20.10;99.90;;;;;;5005452;28;20179;-80
2021/06/29 01:39:08;;;;;;;0.10;0.10;;;20.20;99.90;;;;;;5022781;28;20246;-80
2021/06/29 01:41:34;;;;;;;0.30;0.30;;;20.20;99.90;;;;;;5005209;28;20240;-80
2021/06/29 01:44:17;;;;;;;0.40;0.40;;;20.20;99.90;;;;;;5021648;28;20195;-80
2021/06/29 01:46:45;;;;;;;0.40;0.40;;;20.20;99.90;;;;;;5038103;28;20197;-80
2021/06/29 01:49:11;;;;;;;0.37;0.20;;;20.30;99.90;;;;;;5005483;28;20596;-80
2021/06/29 01:51:36;;;;;;;0.30;0.30;;;20.30;99.90;;;;;;5021149;28;20171;-80
2021/06/29 01:54:02;;;;;;;0.40;0.30;;;20.30;99.90;;;;;;5004742;28;20662;-80
2021/06/29 01:56:30;;;;;;;0.40;0.30;;;20.30;99.90;;;;;;5021047;28;20791;-80
2021/06/29 01:58:59;;;;;;;0.83;0.30;;;20.40;99.90;;;;;;5005746;28;20214;-80
2021/06/29 02:01:25;;;;;;;0.80;0.37;;;20.50;99.90;;;;;;5021215;28;20661;-80
2021/06/29 02:03:50;;;;;;;0.33;0.33;;;20.50;99.90;;;;;;5004109;28;20199;-80
2021/06/29 02:06:16;;;;;;;0.60;0.50;;;20.50;99.90;;;;;;5020697;28;20190;-80
2021/06/29 02:08:42;;;;;;;0.70;0.47;;;20.40;99.90;;;;;;5004348;28;20297;-80
2021/06/29 02:11:08;;;;;;;1.03;0.57;;;20.30;99.90;;;;;;5037256;28;20175;-80
2021/06/29 02:13:34;;;;;;;1.57;0.73;;;20.30;99.90;;;;;;5019325;23;20289;-80
2021/06/29 02:16:00;;;;;;;0.90;0.70;;;20.30;99.90;;;;;;4998708;28;20552;-80
2021/06/29 02:18:29;;;;;;;1.20;0.80;;;20.20;99.90;;;;;;5014481;28;20267;-79
2021/06/29 02:20:55;;;;;;;1.77;0.80;;;20.20;99.90;;;;;;5015184;28;20182;-80
2021/06/29 02:23:21;;;;;;;1.23;0.70;;;20.20;99.90;;;;;;5001205;28;20294;-82
2021/06/29 02:25:46;;;;;;;1.00;0.90;;;20.10;99.90;;;;;;4998430;28;20179;-80
2021/06/29 02:28:12;;;;;;;1.23;0.77;;;20.10;99.90;;;;;;5014533;28;20176;-81
2021/06/29 02:30:38;;;;;;;1.47;1.00;;;20.10;99.90;;;;;;5014569;28;20175;-79
2021/06/29 02:33:04;;;;;;;0.73;0.50;;;20.10;99.90;;;;;;4998408;28;20196;-80
2021/06/29 02:35:29;;;;;;;1.17;0.57;;;20.10;99.90;;;;;;4998334;28;20179;-82
2021/06/29 02:37:56;;;;;;;0.57;0.40;;;20.00;99.90;;;;;;4998157;28;20684;-81
2021/06/29 02:40:21;;;;;;;1.20;0.50;;;19.90;99.90;;;;;;5014547;28;20172;-82
2021/06/29 02:42:47;;;;;;;0.50;0.50;;;19.90;99.90;;;;;;5014851;28;20545;-81
2021/06/29 02:45:18;;;;;;;0.63;0.60;;;19.90;99.90;;;;;;4998329;28;20211;-80
2021/06/29 02:47:43;;;;;;;0.70;0.60;;;20.00;99.90;;;;;;4994475;28;20177;-81
2021/06/29 02:50:09;;;;;;;0.40;0.40;;;19.90;99.90;;;;;;4995051;28;20223;-82
2021/06/29 02:52:35;;;;;;;0.90;0.60;;;19.90;99.90;;;;;;5011645;28;20194;-81
2021/06/29 02:55:02;;;;;;;0.70;0.50;;;20.00;99.90;;;;;;4994910;28;20383;-81
2021/06/29 02:57:27;;;;;;;0.30;0.30;;;19.90;99.90;;;;;;4994531;28;20176;-82
2021/06/29 02:59:53;;;;;;;0.67;0.37;;;19.90;99.90;;;;;;5010839;28;20183;-80
2021/06/29 03:02:19;;;;;;;0.20;0.20;;;19.90;99.90;;;;;;5010575;28;20271;-81
2021/06/29 03:04:44;;;;;;;0.70;0.60;;;20.00;99.90;;;;;;4994377;28;20282;-80
2021/06/29 03:07:12;;;;;;;0.50;0.50;;;19.90;99.90;;;;;;5010337;28;20176;-80
2021/06/29 03:09:38;;;;;;;0.40;0.40;;;20.00;99.90;;;;;;4993718;28;20578;-81
2021/06/29 03:12:04;;;;;;;1.30;0.80;;;20.00;99.90;;;;;;4994228;28;20176;-81
2021/06/29 03:14:29;;;;;;;0.50;0.33;;;20.00;99.90;;;;;;4993566;28;20215;-80
2021/06/29 03:16:55;;;;;;;0.87;0.50;;;20.10;99.90;;;;;;5010284;28;20186;-80
2021/06/29 03:19:21;;;;;;;0.97;0.53;;;20.10;99.90;;;;;;4993827;28;20195;-80
2021/06/29 03:21:46;;;;;;;1.97;1.30;;;20.00;99.90;;;;;;4993849;28;20671;-81
2021/06/29 03:24:12;;;;;;;0.50;0.40;;;20.00;99.90;;;;;;4993464;28;20208;-79
2021/06/29 03:26:38;;;;;;;0.80;0.73;;;20.00;99.90;;;;;;5009888;28;20592;-80
2021/06/29 03:29:04;;;;;;;0.57;0.40;;;20.00;99.90;;;;;;5009786;28;20203;-80
2021/06/29 03:31:31;;;;;;;0.50;0.50;;;20.00;99.90;;;;;;4993644;28;20184;-80
2021/06/29 03:33:57;;;;;;;0.97;0.73;;;20.00;99.90;;;;;;5009621;28;20247;-80
2021/06/29 03:36:23;;;;;;;1.10;0.90;;;20.00;99.90;;;;;;5009319;28;20651;-82
2021/06/29 03:38:48;;;;;;;1.10;0.60;;;20.00;99.90;;;;;;5009781;28;20199;-80
2021/06/29 03:41:14;;;;;;;1.30;0.50;;;20.00;99.90;;;;;;5009734;28;20172;-80
2021/06/29 03:43:39;;;;;;;1.63;0.90;;;20.00;99.90;;;;;;4993086;28;20741;-81
2021/06/29 03:46:05;;;;;;;0.30;0.30;;;20.00;99.90;;;;;;5009557;28;20613;-81
2021/06/29 03:48:31;;;;;;;1.47;0.73;;;20.00;99.90;;;;;;4992948;28;20231;-79
2021/06/29 03:50:56;;;;;;;1.50;0.50;;;20.00;99.90;;;;;;4993193;28;20172;-80
2021/06/29 03:53:22;;;;;;;0.73;0.73;;;20.00;99.90;;;;;;5009383;28;20527;-80
2021/06/29 03:55:48;;;;;;;0.67;0.60;;;20.00;99.90;;;;;;5009085;28;20196;-81
2021/06/29 03:58:13;;;;;;;0.97;0.60;;;20.10;99.90;;;;;;5008637;28;20362;-81
2021/06/29 04:00:39;;;;;;;0.60;0.50;;;20.10;99.90;;;;;;4992987;28;20655;-82
2021/06/29 04:03:05;;;;;;;0.63;0.63;;;20.00;99.90;;;;;;4992835;28;20625;-81
2021/06/29 04:05:30;;;;;;;1.70;1.03;;;20.00;99.90;;;;;;5009396;28;20204;-79
2021/06/29 04:07:56;;;;;;;0.70;0.50;;;20.10;99.90;;;;;;4992562;28;20191;-80
2021/06/29 04:10:21;;;;;;;1.27;0.50;;;20.00;99.90;;;;;;4992529;28;20303;-81
2021/06/29 04:12:47;;;;;;;1.20;0.70;;;20.00;99.90;;;;;;4992649;28;20219;-80
2021/06/29 04:15:12;;;;;;;0.80;0.40;;;20.10;99.90;;;;;;4992767;28;20242;-81
2021/06/29 04:17:38;;;;;;;1.33;1.00;;;20.10;99.90;;;;;;4992781;28;20168;-80
2021/06/29 04:20:06;;;;;;;1.03;0.70;;;20.20;99.90;;;;;;4992963;28;20271;-80
2021/06/29 04:22:35;;;;;;;0.80;0.60;;;20.00;99.90;;;;;;4992592;28;20231;-80
2021/06/29 04:25:01;;;;;;;1.30;0.83;;;20.00;99.90;;;;;;4992510;28;20235;-79
2021/06/29 04:27:26;;;;;;;0.67;0.50;;;20.10;99.90;;;;;;5008510;28;20179;-81
2021/06/29 04:29:52;;;;;;;0.40;0.30;;;20.00;99.90;;;;;;4992124;28;20208;-80
2021/06/29 04:32:19;;;;;;;0.60;0.60;;;19.90;99.90;;;;;;4992249;28;20204;-80
2021/06/29 04:34:45;;;;;;;0.87;0.60;;;20.00;99.90;;;;;;5008644;28;20200;-80
2021/06/29 04:37:10;;;;;;;1.03;0.87;;;20.00;99.90;;;;;;4991955;28;20172;-82
2021/06/29 04:39:36;;;;;;;0.93;0.67;;;20.00;99.90;;;;;;5008601;28;20180;-80
2021/06/29 04:42:01;;;;;;;0.63;0.60;;;20.10;99.90;;;;;;5008409;28;20199;-80
2021/06/29 04:44:27;;;;;;;1.73;0.50;;;20.00;99.90;;;;;;4994947;28;20273;-79
2021/06/29 04:46:53;;;;;;;1.53;0.70;;;20.00;99.90;;;;;;4994120;28;20179;-81
2021/06/29 04:49:21;;;;;;;0.50;0.47;;;20.00;99.90;;;;;;4994209;28;20227;-80
2021/06/29 04:51:47;;;;;;;0.40;0.40;;;20.00;99.90;;;;;;4995582;28;20180;-80
2021/06/29 04:54:12;;;;;;;1.00;0.50;;;20.00;99.90;;;;;;4995238;28;20253;-78
2021/06/29 04:56:38;;;;;;;1.67;1.23;;;20.00;99.90;;;;;;4995211;28;20183;-78
2021/06/29 04:59:03;;;;;;;0.80;0.80;;;20.00;99.90;;;;;;4978761;28;20658;-77
2021/06/29 05:01:31;;;;;;;0.70;0.63;;;20.00;99.90;;;;;;4982194;28;20762;-79
2021/06/29 05:03:57;;;;;;;0.83;0.67;;;19.90;99.90;;;;;;4998620;28;20564;-81
2021/06/29 05:06:22;;;;;;;0.67;0.40;;;19.90;99.90;;;;;;4998054;28;20187;-82
2021/06/29 05:08:48;;;;;;;0.93;0.73;;;19.90;99.90;;;;;;4981304;28;20211;-77
2021/06/29 05:11:14;;;;;;;0.87;0.50;;;19.90;99.90;;;;;;4995254;28;20176;-77
2021/06/29 05:13:39;;;;;;;0.70;0.30;;;19.80;99.90;;;;;;4978877;28;20227;-78
2021/06/29 05:16:05;;;;;;;0.30;0.20;;;19.80;99.90;;;;;;4995211;28;20233;-80
2021/06/29 05:18:31;;;;;;;0.40;0.40;;;19.90;99.90;;;;;;5011435;28;20175;-81
2021/06/29 05:20:57;;;;;;;0.50;0.40;;;19.90;99.90;;;;;;4979230;28;20270;-78
2021/06/29 05:23:22;;;;;;;0.80;0.60;;;20.00;99.90;;;;;;4979122;28;20196;-83
2021/06/29 05:25:48;;;;;;;0.70;0.40;;;20.00;99.90;;;;;;4995951;28;20179;-84
2021/06/29 05:28:14;;;;;;;0.60;0.30;;;20.10;99.90;;;;;;4993598;28;20180;-82
2021/06/29 05:30:39;;;;;;;0.83;0.57;;;20.30;99.90;;;;;;5024153;28;20623;-81
2021/06/29 05:33:05;;;;;;;0.63;0.50;;;20.40;99.90;;;;;;4976013;28;20192;-78
2021/06/29 05:35:30;;;;;;;0.50;0.37;;;20.50;99.90;;;;;;4995551;28;20176;-79
2021/06/29 05:37:56;;;;;;;1.17;0.60;;;20.60;99.90;;;;;;5014115;28;20188;-83
2021/06/29 05:40:22;;;;;;;1.27;0.80;;;20.80;99.90;;;;;;4977542;28;20647;-82
2021/06/29 05:42:47;;;;;;;0.80;0.50;;;20.90;99.90;;;;;;4995993;28;20190;-82
2021/06/29 05:45:14;;;;;;;0.70;0.50;;;21.00;99.90;;;;;;4996467;28;20175;-80
2021/06/29 05:47:40;;;;;;;0.60;0.60;;;21.00;99.90;;;;;;5010696;28;20225;-79
2021/06/29 05:50:12;;;;;;;1.17;0.70;;;21.00;99.90;;;;;;5012308;28;20195;-83
2021/06/29 05:52:38;;;;;;;0.60;0.40;;;21.20;99.90;;;;;;4979346;28;20263;-79
2021/06/29 05:55:04;;;;;;;0.40;0.30;;;21.10;99.90;;;;;;4975239;28;20300;-78
2021/06/29 05:57:30;;;;;;;0.40;0.40;;;21.40;99.90;;;;;;4976083;28;20180;-84
2021/06/29 05:59:56;;;;;;;0.70;0.30;;;21.60;99.90;;;;;;4976620;28;20251;-86
2021/06/29 06:02:22;;;;;;;0.90;0.40;;;21.70;99.90;;;;;;4977096;28;20590;-85
2021/06/29 06:04:47;;;;;;;0.60;0.30;;;21.80;99.90;;;;;;4976498;28;20234;-85
2021/06/29 06:07:13;;;;;;;0.50;0.40;;;22.00;99.90;;;;;;4976415;28;20180;-85
2021/06/29 06:09:38;;;;;;;0.60;0.43;;;22.10;99.90;;;;;;4976377;28;20275;-84
2021/06/29 06:12:05;;;;;;;0.93;0.50;;;22.40;99.90;;;;;;4975943;28;20647;-86
2021/06/29 06:14:30;;;;;;;0.40;0.40;;;22.70;99.90;;;;;;4977846;28;20238;-82
2021/06/29 06:17:01;;;;;;;0.60;0.57;;;22.70;99.90;;;;;;4978337;28;20176;-83
2021/06/29 06:19:28;;;;;;;1.07;0.43;;;22.50;99.90;;;;;;4993919;28;20188;-82
2021/06/29 06:21:53;;;;;;;0.77;0.70;;;22.60;99.90;;;;;;4995961;28;20264;-81
2021/06/29 06:24:19;;;;;;;0.63;0.50;;;22.60;99.90;;;;;;4995633;28;20247;-81
2021/06/29 06:26:44;;;;;;;0.67;0.50;;;22.50;99.90;;;;;;5036498;28;20184;-79
2021/06/29 06:29:10;;;;;;;0.80;0.43;;;22.30;99.90;;;;;;4999092;28;20211;-80
2021/06/29 06:31:36;;;;;;;0.50;0.40;;;22.20;99.90;;;;;;4991031;28;20175;-80
2021/06/29 06:34:01;;;;;;;0.80;0.67;;;22.10;99.90;;;;;;4990849;28;20203;-81
2021/06/29 06:36:27;;;;;;;1.00;0.77;;;22.00;99.90;;;;;;4990346;28;20215;-84
2021/06/29 06:38:52;;;;;;;0.80;0.40;;;21.90;99.90;;;;;;4990479;28;20195;-81
2021/06/29 06:41:18;;;;;;;1.00;0.67;;;22.00;99.90;;;;;;4983505;28;20630;-81
2021/06/29 06:43:44;;;;;;;0.90;0.60;;;21.90;99.90;;;;;;4995696;28;20305;-82
2021/06/29 06:46:09;;;;;;;0.83;0.80;;;21.90;99.90;;;;;;5014440;28;20262;-81
2021/06/29 06:48:36;;;;;;;1.33;0.40;;;21.90;99.90;;;;;;4989950;28;20588;-81
2021/06/29 06:51:02;;;;;;;1.20;0.90;;;22.00;99.90;;;;;;4990034;28;20654;-81
2021/06/29 06:53:28;;;;;;;1.80;0.80;;;22.00;99.90;;;;;;4993109;28;20203;-84
2021/06/29 06:55:53;;;;;;;1.33;0.83;;;22.10;99.90;;;;;;4990389;28;20194;-84
2021/06/29 06:58:19;;;;;;;1.57;0.80;;;22.20;99.90;;;;;;4981572;28;20207;-85
2021/06/29 07:00:44;;;;;;;1.00;0.53;;;22.40;99.90;;;;;;4997215;28;20225;-85
2021/06/29 07:03:10;;;;;;;1.10;0.70;;;22.30;99.90;;;;;;4997448;28;20207;-85
2021/06/29 07:05:35;;;;;;;1.53;0.70;;;22.30;99.90;;;;;;4998083;28;20176;-84
2021/06/29 07:08:01;;;;;;;1.47;0.70;;;22.40;99.90;;;;;;4997515;28;20180;-85
2021/06/29 07:10:46;;;;;;;2.10;0.80;;;22.40;99.90;;;;;;5020787;28;20314;-86
2021/06/29 07:13:11;;;;;;;1.50;1.03;;;22.50;99.90;;;;;;5013678;28;20207;-78
2021/06/29 07:15:37;;;;;;;1.07;0.67;;;22.40;99.90;;;;;;4996627;28;20172;-78
2021/06/29 07:18:03;;;;;;;1.13;0.77;;;22.00;99.90;;;;;;4996443;28;20176;-83
2021/06/29 07:20:28;;;;;;;2.33;0.83;;;22.00;99.90;;;;;;5013465;28;20171;-77
2021/06/29 07:22:54;;;;;;;1.37;0.70;;;22.00;99.90;;;;;;5014723;28;20206;-85
2021/06/29 07:25:20;;;;;;;1.80;0.83;;;22.20;99.90;;;;;;4997220;28;20183;-85
2021/06/29 07:27:46;;;;;;;1.40;0.77;;;22.40;99.90;;;;;;5013441;28;20180;-84
2021/06/29 07:30:12;;;;;;;2.23;1.03;;;22.40;99.90;;;;;;5013784;28;20208;-82
2021/06/29 07:32:42;;;;;;;1.60;1.00;;;22.40;99.90;;;;;;4996364;28;20190;-83
2021/06/29 07:35:09;;;;;;;2.97;1.23;;;22.30;99.90;;;;;;4995653;28;20233;-82
2021/06/29 07:37:35;;;;;;;2.97;1.20;;;22.10;99.90;;;;;;5009778;28;20243;-82
2021/06/29 07:40:00;;;;;;;1.13;0.80;;;22.00;99.90;;;;;;4993663;28;20692;-83
2021/06/29 07:42:26;;;;;;;1.50;0.80;;;21.80;99.90;;;;;;5009834;28;20585;-81
2021/06/29 07:44:51;;;;;;;1.27;0.77;;;21.70;99.90;;;;;;5018216;28;20195;-80
2021/06/29 07:47:17;;;;;;;2.43;1.37;;;21.90;99.90;;;;;;4996430;28;20249;-82
2021/06/29 07:49:43;;;;;;;2.30;1.10;;;21.80;99.90;;;;;;4977222;28;20200;-83
2021/06/29 07:52:08;;;;;;;2.50;1.03;;;21.90;99.90;;;;;;5000763;28;20180;-81
2021/06/29 07:54:34;;;;;;;1.47;0.90;;;22.00;99.90;;;;;;4980354;28;20203;-82
2021/06/29 07:56:59;;;;;;;3.80;1.33;;;22.10;99.90;;;;;;4990874;28;20180;-83
2021/06/29 07:59:27;;;;;;;2.17;1.20;;;22.20;99.90;;;;;;5013060;28;20219;-83
2021/06/29 08:01:52;;;;;;;2.50;1.13;;;22.10;99.90;;;;;;5012653;28;20207;-81
2021/06/29 08:04:18;;;;;;;3.00;1.10;;;22.10;99.90;;;;;;4987350;28;20673;-81
2021/06/29 08:06:43;;;;;;;1.73;1.10;;;22.20;99.90;;;;;;4992945;28;20184;-82
2021/06/29 08:09:09;;;;;;;3.73;1.67;;;22.20;99.90;;;;;;4998375;28;20299;-84
2021/06/29 08:11:35;;;;;;;3.50;1.40;;;22.30;99.90;;;;;;5009830;28;20266;-82
2021/06/29 08:14:00;;;;;;;4.00;1.60;;;22.40;99.90;;;;;;4996170;28;20211;-83
2021/06/29 08:16:26;;;;;;;1.83;1.20;;;22.50;99.90;;;;;;4996104;28;20683;-83
2021/06/29 08:18:51;;;;;;;3.30;1.00;;;22.50;99.90;;;;;;4996356;28;20595;-82
2021/06/29 08:21:17;;;;;;;4.00;1.53;;;22.60;99.90;;;;;;4996279;28;20185;-82
2021/06/29 08:23:42;;;;;;;3.40;1.20;;;22.60;99.90;;;;;;4997590;28;20785;-82
2021/06/29 08:26:08;;;;;;;1.80;1.20;;;22.50;99.90;;;;;;4997192;28;20222;-83
2021/06/29 08:28:35;;;;;;;2.77;1.10;;;22.60;99.90;;;;;;5012157;28;20195;-83
2021/06/29 08:31:01;;;;;;;3.37;1.30;;;22.50;99.90;;;;;;4997470;28;20183;-83
2021/06/29 08:33:27;;;;;;;1.23;0.77;;;22.50;99.90;;;;;;4997239;28;20583;-82
2021/06/29 08:35:53;;;;;;;1.90;0.97;;;22.50;99.90;;;;;;4996854;28;20262;-82
2021/06/29 08:38:19;;;;;;;1.83;0.70;;;22.50;99.90;;;;;;4996489;28;20176;-82
2021/06/29 08:40:45;;;;;;;1.60;1.00;;;22.50;99.90;;;;;;4997076;28;20202;-81
2021/06/29 08:43:11;;;;;;;3.80;1.80;;;22.50;99.90;;;;;;4996937;28;20571;-82
2021/06/29 08:45:37;;;;;;;2.40;1.57;;;22.50;99.90;;;;;;4997116;28;20185;-82
2021/06/29 08:48:03;;;;;;;2.63;1.00;;;22.60;99.90;;;;;;4996820;28;20171;-82
2021/06/29 08:50:31;;;;;;;4.20;1.43;;;22.60;99.90;;;;;;4997027;28;20216;-82
2021/06/29 08:52:58;;;;;;;2.43;0.97;;;22.70;99.90;;;;;;4997414;28;20635;-83
2021/06/29 08:55:26;;;;;;;2.13;1.30;;;22.70;99.90;;;;;;4996695;28;20206;-82
2021/06/29 08:57:52;;;;;;;2.33;1.30;;;22.80;99.90;;;;;;4996788;28;20267;-83
2021/06/29 09:00:18;;;;;;;2.63;1.47;;;22.90;99.90;;;;;;5014276;28;20686;-82
2021/06/29 09:02:43;;;;;;;2.23;1.30;;;23.00;99.90;;;;;;4996734;28;20574;-83
2021/06/29 09:05:22;;;;;;;3.07;1.27;;;23.10;99.90;;;;;;4996188;28;20559;-77
2021/06/29 09:07:58;;;;;;;2.03;1.37;;;23.40;99.90;;;;;;5012053;28;20576;-78
2021/06/29 09:10:24;;;;;;;3.70;1.20;;;23.50;99.90;;;;;;4986888;28;20204;-77
2021/06/29 09:12:50;;;;;;;3.97;1.83;;;23.60;99.90;;;;;;5025969;28;20183;-78
2021/06/29 09:15:22;;;;;;;2.03;1.17;;;23.50;99.90;;;;;;4989900;28;20159;-77
2021/06/29 09:17:48;;;;;;;3.00;1.63;;;23.50;99.90;;;;;;4991733;28;20231;-75
2021/06/29 09:20:14;;;;;;;3.43;1.40;;;23.70;99.90;;;;;;4975809;28;20176;-75
2021/06/29 09:22:39;;;;;;;4.23;1.57;;;23.80;99.90;;;;;;4989081;28;20207;-76
2021/06/29 09:25:28;;;;;;;2.73;1.10;;;23.90;99.90;;;;;;5021599;28;20182;-76
2021/06/29 09:27:53;;;;;;;3.53;1.20;;;24.00;99.90;;;;;;5025176;28;20191;-75
2021/06/29 09:30:34;;;;;;;2.53;1.30;;;23.90;99.90;;;;;;5013835;28;20671;-75
2021/06/29 09:33:23;;;;;;;2.97;1.20;;;24.10;99.90;;;;;;5001341;28;20200;-75
2021/06/29 09:35:51;;;;;;;1.83;1.10;;;23.90;99.90;;;;;;5020681;28;20172;-75
2021/06/29 09:38:20;;;;;;;2.30;1.63;;;24.00;99.90;;;;;;5008860;28;20175;-75
2021/06/29 09:40:50;;;;;;;1.93;1.00;;;23.60;99.90;;;;;;5016489;28;20171;-75
2021/06/29 09:43:16;;;;;;;3.67;1.50;;;23.50;99.90;;;;;;5004509;28;20547;-75
2021/06/29 09:45:47;;;;;;;2.63;1.17;;;23.50;99.90;;;;;;5005052;28;20183;-75
2021/06/29 09:48:17;;;;;;;1.93;1.10;;;23.60;99.90;;;;;;4995174;28;20174;-75
2021/06/29 09:50:52;;;;;;;1.47;1.07;;;23.80;99.90;;;;;;4978318;28;20179;-75
2021/06/29 09:53:21;;;;;;;1.50;0.80;;;23.80;99.90;;;;;;4995104;28;20581;-75
2021/06/29 09:55:48;;;;;;;2.77;1.53;;;24.00;99.90;;;;;;5013483;28;20183;-75
2021/06/29 09:58:14;;;;;;;2.10;1.00;;;24.00;99.90;;;;;;4998321;28;20219;-75
2021/06/29 10:00:51;;;;;;;2.27;1.07;;;24.00;99.90;;;;;;4982757;28;20193;-76
2021/06/29 10:03:18;;;;;;;2.40;0.97;;;23.80;99.90;;;;;;4999123;28;20187;-75
2021/06/29 10:05:44;;;;;;;2.00;0.90;;;23.80;99.90;;;;;;4982190;28;20175;-75
2021/06/29 10:08:10;;;;;;;1.33;0.90;;;23.90;99.90;;;;;;4997390;28;20186;-75
2021/06/29 10:10:35;;;;;;;3.40;1.20;;;23.80;99.90;;;;;;5014354;28;20200;-75
2021/06/29 10:13:15;;;;;;;2.53;1.30;;;23.70;99.90;;;;;;5014203;28;20204;-76
2021/06/29 10:15:40;;;;;;;2.27;1.20;;;23.60;99.90;;;;;;5007272;28;20182;-75
2021/06/29 10:18:06;;;;;;;11.33;2.17;;;23.60;99.90;;;;;;4982295;28;20647;-75
2021/06/29 10:20:48;;;;;;;3.17;1.80;;;23.70;99.90;;;;;;5009624;28;20183;-74
2021/06/29 10:23:17;;;;;;;2.63;1.50;;;23.60;99.90;;;;;;4992427;28;20338;-75
2021/06/29 10:25:43;;;;;;;1.57;1.00;;;23.70;99.90;;;;;;4982455;28;20176;-75
2021/06/29 10:28:14;;;;;;;2.90;1.30;;;23.80;99.90;;;;;;5019289;28;20184;-77
2021/06/29 10:30:40;;;;;;;2.77;1.23;;;23.90;99.90;;;;;;4994371;28;20172;-79
2021/06/29 10:33:09;;;;;;;3.13;1.27;;;23.80;99.90;;;;;;5009643;28;20204;-79
2021/06/29 10:35:35;;;;;;;2.53;1.20;;;23.90;99.90;;;;;;4978783;28;20199;-80
2021/06/29 10:38:01;;;;;;;3.13;1.50;;;23.80;99.90;;;;;;4978021;28;20180;-80
2021/06/29 10:40:27;;;;;;;3.63;2.10;;;24.00;99.90;;;;;;4978547;28;20176;-79
2021/06/29 10:42:56;;;;;;;2.53;1.00;;;24.10;99.90;;;;;;4994771;28;20218;-80
2021/06/29 10:45:22;;;;;;;2.60;1.23;;;23.90;99.90;;;;;;4978848;28;20263;-79
2021/06/29 10:47:47;;;;;;;3.20;1.50;;;23.90;99.90;;;;;;4978094;28;20244;-79
2021/06/29 10:50:16;;;;;;;2.67;1.37;;;23.80;99.90;;;;;;4978301;28;20350;-80
2021/06/29 10:52:43;;;;;;;2.70;1.30;;;23.90;99.90;;;;;;4978895;28;20550;-80
2021/06/29 10:55:17;;;;;;;2.03;1.10;;;23.80;99.90;;;;;;4978273;28;20177;-80
2021/06/29 10:57:44;;;;;;;0.73;0.70;;;24.10;99.90;;;;;;4995320;28;20172;-80
2021/06/29 11:00:18;;;;;;;1.70;1.03;;;24.20;99.90;;;;;;4994469;28;20181;-76
2021/06/29 11:02:56;;;;;;;3.17;1.07;;;24.20;99.90;;;;;;5001898;28;20184;-76
2021/06/29 11:05:23;;;;;;;1.10;1.00;;;24.30;99.90;;;;;;4998325;28;20183;-77
2021/06/29 11:07:49;;;;;;;1.50;0.83;;;24.30;99.90;;;;;;4997237;28;20596;-77
2021/06/29 11:10:37;;;;;;;1.17;0.70;;;24.30;99.90;;;;;;4991804;28;20199;-77
2021/06/29 11:13:03;;;;;;;0.80;0.77;;;24.10;99.90;;;;;;5013193;28;20209;-78
2021/06/29 11:15:42;;;;;;;1.27;0.77;;;24.10;99.90;;;;;;4997856;28;20175;-76
2021/06/29 11:18:08;;;;;;;1.13;0.50;;;24.20;99.90;;;;;;4997212;28;20643;-77
2021/06/29 11:20:41;;;;;;;1.30;0.70;;;24.10;99.90;;;;;;4984764;28;20566;-77
2021/06/29 11:23:10;;;;;;;1.43;0.80;;;24.10;99.90;;;;;;4993835;28;20204;-77
2021/06/29 11:25:37;;;;;;;1.60;0.73;;;24.10;99.90;;;;;;4994136;28;20360;-77
2021/06/29 11:28:05;;;;;;;0.70;0.50;;;23.90;99.90;;;;;;5010414;28;20199;-77
2021/06/29 11:30:50;;;;;;;1.47;0.70;;;23.90;99.90;;;;;;4994453;28;20208;-79
2021/06/29 11:33:40;;;;;;;1.57;0.90;;;23.60;99.90;;;;;;4995388;28;20188;-77
2021/06/29 11:36:28;;;;;;;1.43;1.10;;;23.70;99.90;;;;;;4994482;28;20658;-78
2021/06/29 11:39:22;;;;;;;1.60;0.70;;;23.60;99.90;;;;;;5000780;28;20247;-77
2021/06/29 11:42:02;;;;;;;1.27;0.87;;;23.70;99.90;;;;;;5008431;28;20191;-78
2021/06/29 11:44:28;;;;;;;1.23;0.53;;;23.80;99.90;;;;;;5012510;28;20200;-78
2021/06/29 11:46:59;;;;;;;1.03;0.67;;;24.10;99.90;;;;;;5002924;28;20703;-76
2021/06/29 11:49:38;;;;;;;2.03;0.80;;;24.30;99.90;;;;;;5001016;28;20286;-77
2021/06/29 11:52:12;;;;;;;1.67;0.60;;;24.10;99.90;;;;;;4996333;28;20172;-76
2021/06/29 11:54:57;;;;;;;1.97;0.93;;;24.10;99.90;;;;;;4993100;28;20195;-76
2021/06/29 11:57:44;;;;;;;1.70;0.83;;;23.90;99.90;;;;;;4992919;28;20286;-77
2021/06/29 12:00:27;;;;;;;2.23;1.00;;;23.50;99.90;;;;;;4994245;28;20287;-77
2021/06/29 12:02:57;;;;;;;2.97;1.17;;;23.40;99.90;;;;;;4992802;28;20323;-76
2021/06/29 12:05:27;;;;;;;1.65;0.77;;;23.60;99.90;;;;;;4993154;28;20188;-82
2021/06/29 12:07:56;;;;;;;2.23;1.00;;;24.10;99.90;;;;;;4976848;28;20267;-77
2021/06/29 12:10:36;;;;;;;4.07;1.50;;;24.20;99.90;;;;;;4992646;28;20200;-77
2021/06/29 12:13:03;;;;;;;3.07;1.07;;;24.40;99.90;;;;;;4976617;28;20699;-78
2021/06/29 12:15:45;;;;;;;2.97;1.13;;;24.40;99.90;;;;;;5001030;28;20175;-76
2021/06/29 12:18:16;;;;;;;2.40;1.00;;;24.10;99.90;;;;;;4994658;28;20222;-75
2021/06/29 12:21:08;;;;;;;1.73;0.97;;;24.30;99.90;;;;;;4993603;28;20188;-76
2021/06/29 12:23:35;;;;;;;2.40;1.10;;;24.30;99.90;;;;;;5001767;28;20588;-75
2021/06/29 12:26:05;;;;;;;2.83;1.40;;;24.50;99.90;;;;;;5023037;28;20897;-80
2021/06/29 12:28:34;;;;;;;2.83;1.63;;;24.60;99.90;;;;;;5026817;28;20183;-77
2021/06/29 12:31:01;;;;;;;3.77;1.47;;;24.50;99.90;;;;;;5017096;28;20207;-77
2021/06/29 12:33:30;;;;;;;4.37;1.10;;;24.60;99.90;;;;;;5019770;28;20694;-75
2021/06/29 12:35:59;;;;;;;3.08;1.40;;;24.70;99.90;;;;;;5000340;28;20720;-75
2021/06/29 12:38:26;;;;;;;2.83;1.52;;;24.80;99.90;;;;;;5007999;28;20195;-75
2021/06/29 12:40:54;;;;;;;3.33;1.45;;;24.90;99.90;;;;;;4992299;28;20654;-75
2021/06/29 12:43:26;;;;;;;3.50;1.20;;;25.10;99.90;;;;;;5002669;28;20207;-75
2021/06/29 12:45:52;;;;;;;2.40;1.37;;;25.10;99.90;;;;;;5015665;28;20306;-76
2021/06/29 12:48:18;;;;;;;2.20;1.40;;;25.10;99.90;;;;;;5025402;28;20199;-76
2021/06/29 12:50:55;;;;;;;4.25;1.83;;;25.10;99.90;;;;;;5009617;28;20227;-75